Ely, NV (89315)

10:50 AM PST on February 23, 2017 (GMT -0800)
| | Change Station

Elev -9999 ft 0.00 °N, 0.00 °E | Updated 17 minutes ago

Overcast
Overcast
°F
Feels Like °F
N
Wind Variable Wind from North
Gusts mph

Today
High -- | Low -- °F
--% Chance of Precip.
Yesterday
High -- | Low -- °F
Precip. -- in
Pressure 29.96 in
Visibility 10.0 miles
Clouds Scattered Clouds 3500 ft
Scattered Clouds 4200 ft
Overcast 5500 ft
Dew Point Not available.
Humidity Not available.
Rainfall --
Snow Depth Not available.
6:20 AM 5:25 PM
Waning Crescent, 9% visible
METAR KELY 231753Z AUTO 29010KT 10SM SCT035 SCT042 OVC055 M04/M09 A2984 RMK AO2 SLP145 60000 T10441094 11039 21100 50008
Pressure 29.96 in
Visibility 10.0 miles
Clouds Scattered Clouds 3500 ft
Scattered Clouds 4200 ft
Overcast 5500 ft
Dew Point Not available.
Humidity Not available.
Rainfall --
Snow Depth Not available.
6:20 AM 5:25 PM
Waning Crescent, 9% visible
METAR KELY 231753Z AUTO 29010KT 10SM SCT035 SCT042 OVC055 M04/M09 A2984 RMK AO2 SLP145 60000 T10441094 11039 21100 50008

Get Your Daily Forecast Email!

Thanks for signing up!

Be on the lookout for a verification email in your inbox.

You'll start receiving the daily forecast at 8 AM.

×

10-Day Weather Forecast

Almanac

Astronomy

Feb. 23, 2017 Rise Set
Actual Time
Civil Twilight
Nautical Twilight
Astronomical Twilight
Moon
Length of Visible Light
Length of Day
Tomorrow will be .
, % of the Moon is Illuminated

Today's Extremes

State Highs State Lows

Community

WunderPhotos

Upload Photos

1,962,540 photos uploaded!

WunderBlog® & News

Nearby

Air Quality

  Air Quality AQ Index Pollutant
Not available.

Snow Depth

Station Depth Elevation

Earthquake Activity

City Distance Mag. Time & Date
Minimum magnitude displayed is 2.5.

Coastal Water Temperatures

Place Temperature

Stations

Nearby Weather Stations

Station Location Temp. Windchill Dew Point Humidity Wind Precip. Elev Updated Type
                   

Watches & Warnings

There are currently no watches in effect.